createdAt,value
2023-11-13T01:42:36.560Z,99.17
2023-11-13T02:27:43.027Z,98.55
2023-11-13T02:30:43.061Z,98.29
2023-11-13T02:33:36.564Z,98.92
2023-11-13T02:36:16.159Z,99.19
2023-11-13T03:49:25.849Z,96.31
2023-11-13T06:45:50.862Z,97.59
2023-11-13T06:48:36.018Z,97.42
2023-11-13T06:51:12.682Z,97.79
2023-11-13T06:53:53.338Z,97.59
2023-11-13T06:59:24.662Z,97.17
2023-11-13T07:01:57.041Z,97.18
2023-11-13T07:07:08.107Z,96.78
2023-11-13T07:09:43.417Z,96.09
2023-11-13T07:12:21.880Z,95.25
2023-11-13T07:14:56.781Z,95.11
2023-11-13T07:17:38.296Z,95.29
2023-11-13T07:20:27.880Z,94.65
2023-11-13T07:23:21.471Z,93.84
2023-11-13T07:26:00.477Z,93.36
2023-11-13T07:29:05.434Z,92.81
2023-11-13T07:31:54.618Z,92.76
2023-11-13T07:34:46.869Z,92.60
2023-11-13T07:37:37.297Z,92.50
2023-11-13T07:40:27.171Z,92.14
2023-11-13T07:43:06.882Z,92.44
2023-11-13T07:45:56.014Z,91.82
2023-11-13T07:48:43.478Z,91.98
2023-11-13T07:51:32.467Z,92.17
2023-11-13T07:54:21.432Z,91.68
2023-11-13T07:57:01.326Z,91.53
2023-11-13T07:59:35.251Z,91.52
2023-11-13T08:02:06.096Z,91.73
2023-11-13T08:04:45.934Z,91.64
2023-11-13T08:07:28.036Z,92.08
2023-11-13T08:10:15.390Z,91.78
2023-11-13T08:12:55.874Z,91.84
2023-11-13T08:15:38.942Z,91.41
2023-11-13T08:18:34.042Z,91.61
2023-11-13T08:21:23.003Z,91.47
2023-11-13T08:24:12.796Z,91.18
2023-11-13T08:26:58.601Z,91.23
2023-11-13T08:29:57.742Z,91.01
2023-11-13T08:38:59.750Z,89.54
2023-11-13T08:42:01.905Z,89.52
2023-11-13T08:45:02.818Z,88.55
2023-11-13T08:47:42.628Z,88.97
2023-11-13T08:53:07.540Z,87.92
2023-11-13T08:55:47.091Z,87.56
2023-11-13T09:01:09.703Z,87.41
2023-11-13T09:03:56.590Z,87.29
2023-11-13T09:06:40.454Z,86.29
2023-11-13T09:09:18.443Z,86.51
2023-11-13T09:11:49.868Z,86.52
2023-11-13T09:14:40.006Z,86.05
2023-11-13T09:20:02.726Z,85.28
2023-11-13T09:22:35.731Z,85.25
2023-11-13T09:25:07.141Z,85.78
2023-11-13T09:27:41.284Z,84.17
2023-11-13T09:30:23.859Z,84.81
2023-11-13T09:33:27.094Z,84.51
2023-11-13T09:36:00.787Z,84.40
2023-11-13T09:38:58.158Z,84.10
2023-11-13T09:41:38.569Z,84.70
2023-11-13T09:44:12.805Z,84.13
2023-11-13T09:46:58.268Z,83.98
2023-11-13T09:49:42.208Z,84.43
2023-11-13T09:52:21.427Z,84.48
2023-11-13T09:54:51.350Z,83.98
2023-11-13T09:57:26.434Z,83.95
2023-11-13T09:59:59.278Z,83.72
2023-11-13T10:02:35.878Z,83.43
2023-11-13T10:05:16.148Z,83.76
2023-11-13T10:10:43.105Z,83.66
2023-11-13T10:13:31.862Z,83.67
2023-11-13T10:16:25.849Z,84.42
2023-11-13T10:19:00.454Z,84.10
2023-11-13T10:22:12.926Z,84.09
2023-11-13T10:25:01.548Z,84.18
2023-11-13T10:27:34.494Z,83.82
2023-11-13T10:30:14.649Z,84.06
2023-11-13T10:32:52.548Z,84.62
2023-11-13T10:35:38.595Z,84.14
2023-11-13T10:38:15.473Z,83.48
2023-11-13T10:43:40.769Z,83.08
2023-11-13T10:46:13.073Z,82.83
2023-11-13T10:48:46.687Z,82.60
2023-11-13T10:51:33.417Z,82.07
2023-11-13T10:54:12.364Z,81.76
2023-11-13T10:56:53.054Z,82.33
2023-11-13T10:59:27.479Z,81.89
2023-11-13T11:02:07.948Z,82.18
2023-11-13T11:04:44.313Z,82.50
2023-11-13T11:11:00.684Z,82.17
2023-11-13T11:16:49.493Z,82.26
2023-11-13T11:19:32.585Z,81.96
2023-11-13T11:25:57.937Z,81.33
2023-11-13T11:28:49.459Z,81.04
2023-11-13T11:31:55.197Z,81.79
2023-11-13T11:34:37.064Z,81.67
2023-11-13T11:37:19.343Z,81.33
2023-11-13T11:39:52.747Z,81.41
2023-11-13T11:42:34.772Z,80.83
2023-11-13T11:45:22.864Z,81.12
2023-11-13T11:47:59.683Z,80.71
2023-11-13T11:50:42.772Z,80.69
2023-11-13T11:53:22.468Z,80.48
2023-11-13T11:56:02.160Z,80.93
2023-11-13T11:58:38.048Z,80.65
2023-11-13T12:01:09.911Z,80.37
2023-11-13T12:03:41.500Z,80.58
2023-11-13T12:06:20.503Z,80.82
2023-11-13T12:08:53.311Z,80.91
2023-11-13T12:11:29.185Z,80.18
2023-11-13T12:14:03.531Z,80.08
2023-11-13T12:16:37.225Z,80.42
2023-11-13T12:19:12.912Z,80.86
2023-11-13T12:21:57.115Z,80.95
2023-11-13T12:24:36.026Z,81.08
2023-11-13T12:27:12.250Z,81.98
2023-11-13T12:29:46.449Z,82.15
2023-11-13T12:32:18.721Z,82.67
2023-11-13T12:34:53.445Z,83.30
2023-11-13T12:37:34.902Z,83.38
2023-11-13T12:40:09.911Z,83.35
2023-11-13T12:48:15.018Z,83.44
2023-11-13T12:50:51.387Z,84.29
2023-11-13T12:53:25.685Z,84.58
2023-11-13T12:55:57.483Z,84.62
2023-11-13T12:58:30.267Z,84.42
2023-11-13T13:03:57.884Z,83.82
2023-11-13T13:06:28.955Z,83.06
2023-11-13T13:09:07.602Z,82.56
2023-11-13T13:11:49.331Z,82.65
2023-11-13T13:14:24.227Z,82.41
2023-11-13T13:17:01.576Z,81.88
2023-11-13T13:19:40.441Z,82.19
2023-11-13T13:22:14.272Z,82.64
2023-11-13T13:24:49.589Z,82.17
2023-11-13T13:27:24.379Z,82.15
2023-11-13T13:29:57.565Z,81.83
2023-11-13T13:32:34.357Z,81.62
2023-11-13T13:35:08.241Z,81.61
2023-11-13T13:37:40.875Z,80.69
2023-11-13T13:40:27.598Z,81.00
2023-11-13T13:43:02.148Z,80.67
2023-11-13T13:46:04.713Z,80.58
2023-11-13T13:48:59.094Z,80.84
2023-11-13T13:51:40.016Z,80.60
2023-11-13T13:54:22.221Z,80.63
2023-11-13T13:56:54.412Z,80.77
2023-11-13T13:59:27.108Z,80.76
2023-11-13T14:02:04.850Z,80.80
2023-11-13T14:04:48.557Z,80.77
2023-11-13T14:07:37.027Z,80.80
2023-11-13T14:10:13.103Z,80.83
2023-11-13T14:12:44.285Z,81.09
2023-11-13T14:15:17.454Z,81.72
2023-11-13T14:21:03.017Z,81.99
2023-11-13T14:23:54.878Z,82.25
2023-11-13T14:26:37.190Z,82.13
2023-11-13T14:29:18.659Z,82.28
2023-11-13T14:31:56.488Z,82.82
2023-11-13T14:37:15.948Z,83.28
2023-11-13T14:39:52.300Z,83.99
2023-11-13T14:42:28.701Z,83.76
2023-11-13T14:45:06.400Z,83.98
2023-11-13T14:47:42.324Z,84.31
2023-11-13T14:50:24.517Z,84.38
2023-11-13T14:52:59.878Z,84.53
2023-11-13T14:56:01.863Z,85.09
2023-11-13T14:58:41.282Z,84.71
2023-11-13T15:01:22.521Z,84.70
2023-11-13T15:03:57.979Z,84.70
2023-11-13T15:06:40.753Z,84.72
2023-11-13T15:09:18.140Z,85.27
2023-11-13T15:11:55.483Z,85.92
2023-11-13T15:14:28.504Z,85.76
2023-11-13T15:17:10.630Z,86.14
2023-11-13T15:19:44.964Z,86.50
2023-11-13T15:23:00.704Z,86.45
2023-11-13T15:25:49.116Z,87.22
2023-11-13T15:28:32.640Z,88.12
2023-11-13T15:31:06.121Z,88.24
2023-11-13T15:36:22.510Z,89.04
2023-11-13T15:38:56.730Z,88.85
2023-11-13T15:41:29.081Z,89.60
2023-11-13T15:44:45.905Z,90.13
2023-11-13T15:47:43.010Z,89.89
2023-11-13T15:50:27.618Z,90.32
2023-11-13T15:53:19.993Z,91.41
2023-11-13T15:56:16.604Z,91.41
2023-11-13T15:58:54.374Z,91.32
2023-11-13T16:01:36.759Z,91.82
2023-11-13T16:04:10.602Z,92.41
2023-11-13T16:06:53.523Z,92.23
2023-11-13T16:09:25.787Z,92.28
2023-11-13T16:12:06.569Z,92.70
2023-11-13T16:14:47.959Z,92.59
2023-11-13T16:17:24.152Z,92.18
2023-11-13T16:20:04.804Z,91.61
2023-11-13T16:22:50.571Z,92.20
2023-11-13T16:25:26.379Z,92.26
2023-11-13T16:30:40.414Z,92.82
2023-11-13T16:33:20.799Z,92.95
2023-11-13T16:35:52.808Z,93.23
2023-11-13T16:38:24.653Z,93.53
2023-11-13T16:40:55.278Z,93.88
2023-11-13T16:46:05.280Z,93.18
2023-11-13T16:48:40.324Z,92.53
2023-11-13T16:51:16.885Z,92.82
2023-11-13T16:53:58.876Z,92.01
2023-11-13T16:56:45.772Z,91.94
2023-11-13T16:59:20.297Z,92.09
2023-11-13T17:02:15.482Z,91.63
2023-11-13T17:04:47.527Z,91.89
2023-11-13T17:07:20.890Z,92.00
2023-11-13T17:09:52.064Z,91.88
2023-11-13T17:12:37.300Z,91.45
2023-11-13T17:15:25.927Z,91.68
2023-11-13T17:17:56.176Z,91.23
2023-11-13T17:23:10.558Z,91.44
2023-11-13T17:25:48.191Z,91.00
2023-11-13T17:28:24.509Z,91.04
2023-11-13T17:31:04.321Z,91.29
2023-11-13T17:33:39.639Z,91.17
2023-11-13T17:36:13.523Z,90.96
2023-11-13T17:39:02.885Z,90.96
2023-11-13T17:41:36.153Z,90.74
2023-11-13T17:44:20.550Z,91.00
2023-11-13T17:47:00.881Z,90.95
2023-11-13T17:49:36.218Z,91.05
2023-11-13T17:52:34.674Z,91.05
2023-11-13T17:55:11.289Z,90.97
2023-11-13T17:57:48.907Z,90.79
2023-11-13T18:00:19.607Z,90.30
2023-11-13T18:02:53.736Z,90.32
2023-11-13T18:05:24.004Z,90.30
2023-11-13T18:08:04.853Z,90.87
2023-11-13T18:10:39.658Z,90.54
2023-11-13T18:13:17.021Z,90.76
2023-11-13T18:15:49.472Z,90.33
2023-11-13T18:18:27.570Z,90.34
2023-11-13T18:21:05.721Z,90.04
2023-11-13T18:23:41.324Z,90.50
2023-11-13T18:26:21.384Z,90.41
2023-11-13T18:29:01.212Z,90.44
2023-11-13T18:31:41.539Z,90.39
2023-11-13T18:34:26.158Z,90.25
2023-11-13T18:37:00.262Z,89.75
2023-11-13T18:39:30.209Z,90.16
2023-11-13T18:42:11.424Z,90.07
2023-11-13T18:44:43.448Z,89.08
2023-11-13T18:47:20.966Z,89.29
2023-11-13T18:49:57.665Z,89.46
2023-11-13T18:52:36.208Z,88.81
2023-11-13T18:55:37.788Z,88.67
2023-11-13T18:58:23.430Z,88.40
2023-11-13T19:00:55.172Z,88.87
2023-11-13T19:03:28.123Z,88.99
2023-11-13T19:06:08.796Z,89.01
2023-11-13T19:08:57.704Z,88.38
2023-11-13T19:39:56.341Z,86.41
2023-11-13T19:42:30.390Z,86.85
2023-11-13T19:51:33.459Z,86.32
2023-11-13T19:54:06.031Z,85.97
2023-11-13T19:56:49.943Z,85.92
2023-11-13T20:02:57.813Z,85.92
2023-11-13T20:05:43.023Z,85.58
2023-11-13T20:08:28.337Z,85.71
2023-11-13T20:11:03.413Z,86.39
2023-11-13T20:13:43.304Z,86.59
2023-11-13T20:16:25.766Z,87.42
2023-11-13T20:19:13.131Z,88.34
2023-11-13T20:21:52.391Z,88.21
2023-11-13T20:30:45.371Z,90.46
2023-11-13T20:33:24.535Z,91.13
2023-11-13T20:35:57.460Z,90.81
2023-11-13T20:38:47.489Z,90.98
2023-11-13T20:44:17.958Z,90.94
2023-11-13T20:47:14.578Z,90.57
2023-11-13T20:49:53.786Z,89.99
2023-11-13T20:52:30.342Z,89.47
2023-11-13T20:55:04.683Z,88.42
2023-11-13T20:57:46.081Z,87.53
2023-11-13T21:00:24.941Z,87.36
2023-11-13T21:02:59.813Z,86.89
2023-11-13T21:05:36.129Z,87.44
2023-11-13T21:08:30.661Z,87.51
2023-11-13T21:11:12.272Z,87.20
2023-11-13T21:16:52.955Z,87.56
2023-11-13T21:19:29.181Z,87.18
2023-11-13T21:22:02.012Z,87.20
2023-11-13T21:24:38.313Z,87.21
2023-11-13T21:27:20.368Z,87.33
2023-11-13T21:30:05.717Z,87.07
2023-11-13T21:32:52.643Z,86.70
2023-11-13T21:35:27.958Z,86.36
2023-11-13T21:38:07.628Z,86.60
2023-11-13T21:40:46.068Z,86.79
2023-11-13T21:43:30.189Z,86.76
2023-11-13T21:46:26.791Z,86.62
2023-11-13T21:49:02.617Z,87.03
2023-11-13T21:51:36.210Z,87.11
2023-11-13T21:54:10.163Z,87.51
2023-11-13T21:56:49.468Z,87.52
2023-11-13T21:59:25.518Z,87.65
2023-11-13T22:02:02.601Z,88.26
2023-11-13T22:04:41.352Z,88.88
2023-11-13T22:07:29.755Z,89.36
2023-11-13T22:10:04.674Z,88.89
2023-11-13T22:12:49.379Z,89.81
2023-11-13T22:15:24.404Z,90.08
2023-11-13T22:20:47.367Z,90.41
2023-11-13T22:23:25.927Z,90.48
2023-11-13T22:25:59.983Z,90.90
2023-11-13T22:43:41.081Z,91.51
2023-11-13T22:46:30.773Z,92.30
2023-11-13T22:49:14.396Z,92.07
2023-11-13T22:51:47.408Z,92.09
2023-11-13T22:54:27.010Z,92.04
2023-11-13T22:57:05.819Z,91.58
2023-11-13T22:59:51.267Z,91.63
2023-11-13T23:02:24.674Z,91.17
2023-11-13T23:05:04.137Z,91.16
2023-11-13T23:07:46.623Z,91.12
2023-11-13T23:10:16.636Z,90.36
2023-11-13T23:12:59.868Z,90.50
2023-11-13T23:15:39.194Z,90.42
2023-11-13T23:18:13.319Z,90.02
2023-11-13T23:20:47.316Z,90.03
2023-11-13T23:23:25.202Z,90.14
2023-11-13T23:25:55.291Z,90.32
2023-11-13T23:28:26.860Z,89.90
2023-11-13T23:31:09.751Z,89.62
2023-11-13T23:33:41.045Z,89.46
2023-11-13T23:36:12.938Z,89.58
2023-11-13T23:38:44.395Z,89.79
2023-11-13T23:41:15.678Z,90.50
2023-11-13T23:43:53.164Z,90.58
2023-11-13T23:46:26.469Z,91.36
2023-11-13T23:48:59.984Z,91.69
2023-11-13T23:51:49.650Z,91.53
2023-11-13T23:54:19.383Z,92.28
2023-11-13T23:56:53.892Z,91.82
2023-11-13T23:59:25.295Z,92.17
